x

Buoy E01 - Central Maine Shelf (44032) Wave Buoy

3:04am - Wed 25th Apr 2018 All times are EDT. -4 hours from GMT.

  • Sig Wave height 4.9ft
  • Peak Period 6s
  • Wind
    16mph, 18mph gusts
  • Sea Temp 42°f
  • Air Temp 45°f
  • Sea Pressure 1021.6mb
  • Buoy E01 - Central Maine Shelf
  • Buoy E01 - Central Maine Shelf

More Historic Weather Station data

Upgrade to MSW Pro to gain access to the past 30 days of data for over 8000 Wavebouys and Weather Stations around the globe.

Join

Comparision Forecast

View Surf forecast
   
Wed 04/25 3:04am 5ft 6s 16 18 mph 1021.6mb 42f 45f
2:04am 6ft 6s 18 20 mph 1021.9mb 43f 46f
1:04am 6ft 6s 16 20 mph 1022.5mb 42f 46f
12:04am 4.5ft 5s 18 22 mph 1022.7mb 43f 46f
Tue 04/24 11:04pm 5ft 5s 22 27 mph 1022.5mb 42f 46f
10:04pm 5.5ft 6s 20 25 mph 1022.5mb 43f 46f
9:04pm 6ft 5s 22 25 mph 1022.2mb 42f 46f
8:04pm 5ft 5s 22 27 mph 1022.1mb 43f 46f
7:04pm 4.5ft 5s 20 25 mph 1022.2mb 43f 46f
6:04pm 4.5ft 5s 22 25 mph 1022.8mb 43f 46f
5:04pm 4.5ft 5s 20 25 mph 1023.3mb 43f 46f
4:04pm 4.5ft 5s 20 22 mph 1023.8mb 43f 46f
3:04pm 4.5ft 5s 20 25 mph 1024mb 43f 46f
2:04pm 3.5ft 5s 13 16 mph 1025mb 43f 45f
1:04pm 3.5ft 5s 16 20 mph 1025.6mb 43f 44f
12:04pm 3.5ft 5s 9 13 mph 1026.4mb 42f 44f
11:04am 3.5ft 5s 16 18 mph 1027mb 42f 44f
10:04am 3.5ft 5s 18 20 mph 1027.2mb 42f 44f
9:04am 3ft 5s 16 20 mph 1027mb 42f 44f
7:04am 3ft 5s 16 18 mph 1026.8mb 42f 44f
Mon 04/23 10:04am 1ft 11s 4 7 mph 1031.9mb - 42f
9:04am 0.7ft  -  7 9 mph 1031.3mb - 42f
8:04am 1ft 5s 2 4 mph 1030.8mb - 41f
7:04am 1ft 4s 4 4 mph 1030.1mb - 42f
6:04am 1ft 6s 2 2 mph 1029.3mb - 42f
5:04am 1ft 4s 4 4 mph 1028.7mb - 42f
4:04am 1ft 3s 4 4 mph 1028.6mb - 42f
3:04am 1ft 6s 4 7 mph 1028.3mb - 42f
2:04am 0.7ft  -  7 7 mph 1028mb - 43f
12:04am 1.3ft 3s 4 4 mph 1027.8mb - 44f
Sun 04/22 11:04pm 1.3ft 3s 4 7 mph 1027.4mb - 43f
9:04pm 2ft 4s 11 16 mph 1026.4mb - 44f
8:04pm 1.6ft 3s 7 9 mph 1025.5mb - 44f
7:04pm 1.3ft 3s 11 13 mph 1024.5mb - 45f
6:04pm 1.3ft 3s 9 11 mph 1024.1mb - 45f
5:04pm 0.7ft  -  9 11 mph 1024mb - 45f
3:04pm 1ft 8s 9 9 mph 1024.7mb - 45f
2:04pm 1ft 8s 9 11 mph 1025mb - 44f
1:04pm 1ft 8s 7 9 mph 1025.3mb - 44f
12:04pm 1.3ft 8s 4 7 mph 1025.6mb - 45f
11:04am 1ft 8s 2 2 mph 1025.6mb - 44f
10:04am 1.3ft 8s 4 4 mph 1025.6mb - 44f
8:04am 1.6ft 3s 11 13 mph 1025.1mb - 41f
7:04am 1.3ft 3s 13 16 mph 1024.7mb - 41f
6:04am 1.3ft 3s 11 13 mph 1024.1mb - 41f
4:04am 0.7ft  -  9 11 mph 1023.5mb - 42f
3:04am 1.3ft 8s 11 11 mph 1023.5mb - 42f
2:04am 1.3ft 8s 7 9 mph 1023.5mb - 42f
1:04am 1.3ft 11s 7 9 mph 1023.9mb - 42f
Sat 04/21 11:04pm 1.6ft 8s 11 11 mph 1024.1mb - 44f
10:04pm 2ft 8s 11 11 mph 1024mb - 45f
9:04pm 1.3ft 3s 9 11 mph 1023.5mb - 45f
7:04pm 2ft 3s 11 13 mph 1021.6mb - 43f
6:04pm 1.6ft 3s 11 13 mph 1021mb - 43f
5:04pm 1.3ft 3s 11 13 mph 1020.3mb - 47f
4:04pm 1.3ft 3s 9 11 mph 1020.3mb - 46f
2:04pm 1.3ft 3s 4 7 mph 1021.1mb - 44f
1:04pm 1.3ft 4s 9 11 mph 1021.6mb - 44f
12:04pm 1.6ft 4s 11 13 mph 1022.1mb - 44f
11:04am 2ft 8s 9 11 mph 1022.4mb - 43f
10:04am 2ft 4s 7 9 mph 1022.7mb - 42f
9:04am 2ft 4s 13 16 mph 1022.7mb - 41f